sensor_id;sensor_type;location;lat;lon;timestamp;P1;durP1;ratioP1;P2;durP2;ratioP2
24435;SDS011;12616;52.470;13.436;2022-10-26T00:22:06;10.17;;;8.10;;
24435;SDS011;12616;52.470;13.436;2022-10-26T00:24:32;11.90;;;8.60;;
24435;SDS011;12616;52.470;13.436;2022-10-26T00:26:59;12.93;;;7.97;;
24435;SDS011;12616;52.470;13.436;2022-10-26T00:29:26;12.47;;;9.10;;
24435;SDS011;12616;52.470;13.436;2022-10-26T00:31:54;11.00;;;8.87;;
24435;SDS011;12616;52.470;13.436;2022-10-26T00:34:21;13.07;;;9.53;;
24435;SDS011;12616;52.470;13.436;2022-10-26T00:36:47;13.13;;;9.20;;
24435;SDS011;12616;52.470;13.436;2022-10-26T00:39:15;11.37;;;9.43;;
24435;SDS011;12616;52.470;13.436;2022-10-26T00:41:42;17.80;;;9.73;;
24435;SDS011;12616;52.470;13.436;2022-10-26T00:47:12;16.33;;;9.10;;
24435;SDS011;12616;52.470;13.436;2022-10-26T00:49:43;14.03;;;9.93;;
24435;SDS011;12616;52.470;13.436;2022-10-26T00:52:12;11.80;;;8.83;;
24435;SDS011;12616;52.470;13.436;2022-10-26T00:54:41;12.40;;;8.57;;
24435;SDS011;12616;52.470;13.436;2022-10-26T00:57:09;14.40;;;10.23;;
24435;SDS011;12616;52.470;13.436;2022-10-26T00:59:37;12.70;;;9.30;;
24435;SDS011;12616;52.470;13.436;2022-10-26T01:02:04;15.40;;;9.20;;
24435;SDS011;12616;52.470;13.436;2022-10-26T01:04:33;14.67;;;9.00;;
24435;SDS011;12616;52.470;13.436;2022-10-26T01:07:00;15.77;;;8.57;;
24435;SDS011;12616;52.470;13.436;2022-10-26T01:09:30;14.07;;;8.30;;
24435;SDS011;12616;52.470;13.436;2022-10-26T01:11:59;11.90;;;8.37;;
24435;SDS011;12616;52.470;13.436;2022-10-26T01:14:26;9.70;;;8.37;;
24435;SDS011;12616;52.470;13.436;2022-10-26T01:16:56;11.30;;;8.53;;
24435;SDS011;12616;52.470;13.436;2022-10-26T01:19:41;11.30;;;9.47;;
24435;SDS011;12616;52.470;13.436;2022-10-26T01:22:30;15.33;;;10.10;;
24435;SDS011;12616;52.470;13.436;2022-10-26T01:25:07;17.63;;;10.80;;
24435;SDS011;12616;52.470;13.436;2022-10-26T01:27:41;13.33;;;9.33;;
24435;SDS011;12616;52.470;13.436;2022-10-26T01:30:16;14.17;;;9.60;;
24435;SDS011;12616;52.470;13.436;2022-10-26T01:32:46;14.53;;;10.50;;
24435;SDS011;12616;52.470;13.436;2022-10-26T01:35:26;10.80;;;9.20;;
24435;SDS011;12616;52.470;13.436;2022-10-26T01:37:58;12.90;;;10.03;;
24435;SDS011;12616;52.470;13.436;2022-10-26T01:40:32;13.53;;;10.37;;
24435;SDS011;12616;52.470;13.436;2022-10-26T01:43:03;16.70;;;9.27;;
24435;SDS011;12616;52.470;13.436;2022-10-26T01:45:36;13.23;;;9.47;;
24435;SDS011;12616;52.470;13.436;2022-10-26T01:48:05;10.80;;;9.37;;
24435;SDS011;12616;52.470;13.436;2022-10-26T01:50:33;11.90;;;9.40;;
24435;SDS011;12616;52.470;13.436;2022-10-26T01:53:01;16.60;;;8.73;;
24435;SDS011;12616;52.470;13.436;2022-10-26T01:58:20;13.20;;;9.77;;
24435;SDS011;12616;52.470;13.436;2022-10-26T02:01:15;16.57;;;10.37;;
24435;SDS011;12616;52.470;13.436;2022-10-26T02:03:59;14.10;;;9.57;;
24435;SDS011;12616;52.470;13.436;2022-10-26T02:06:39;14.93;;;8.23;;
24435;SDS011;12616;52.470;13.436;2022-10-26T02:09:13;11.20;;;8.43;;
24435;SDS011;12616;52.470;13.436;2022-10-26T02:11:49;11.80;;;9.40;;
24435;SDS011;12616;52.470;13.436;2022-10-26T02:14:19;11.50;;;9.33;;
24435;SDS011;12616;52.470;13.436;2022-10-26T02:16:56;15.27;;;8.20;;
24435;SDS011;12616;52.470;13.436;2022-10-26T02:19:31;11.40;;;9.13;;
24435;SDS011;12616;52.470;13.436;2022-10-26T02:22:04;11.10;;;8.43;;
24435;SDS011;12616;52.470;13.436;2022-10-26T02:24:34;13.93;;;9.07;;
24435;SDS011;12616;52.470;13.436;2022-10-26T02:27:03;16.60;;;9.73;;
24435;SDS011;12616;52.470;13.436;2022-10-26T02:29:32;17.67;;;9.67;;
24435;SDS011;12616;52.470;13.436;2022-10-26T02:32:01;14.07;;;9.53;;
24435;SDS011;12616;52.470;13.436;2022-10-26T02:34:30;13.87;;;9.20;;
24435;SDS011;12616;52.470;13.436;2022-10-26T02:36:59;15.10;;;9.50;;
24435;SDS011;12616;52.470;13.436;2022-10-26T02:39:28;12.50;;;8.73;;
24435;SDS011;12616;52.470;13.436;2022-10-26T02:41:58;11.47;;;8.63;;
24435;SDS011;12616;52.470;13.436;2022-10-26T02:44:28;13.07;;;9.30;;
24435;SDS011;12616;52.470;13.436;2022-10-26T02:46:57;14.17;;;8.70;;
24435;SDS011;12616;52.470;13.436;2022-10-26T02:49:26;12.30;;;9.27;;
24435;SDS011;12616;52.470;13.436;2022-10-26T02:51:54;14.80;;;9.70;;
24435;SDS011;12616;52.470;13.436;2022-10-26T02:54:28;10.53;;;8.60;;
24435;SDS011;12616;52.470;13.436;2022-10-26T02:56:59;10.33;;;8.03;;
24435;SDS011;12616;52.470;13.436;2022-10-26T02:59:31;12.57;;;8.13;;
24435;SDS011;12616;52.470;13.436;2022-10-26T03:02:01;15.13;;;9.00;;
24435;SDS011;12616;52.470;13.436;2022-10-26T03:04:31;9.67;;;8.60;;
24435;SDS011;12616;52.470;13.436;2022-10-26T03:06:59;14.50;;;9.33;;
24435;SDS011;12616;52.470;13.436;2022-10-26T03:09:26;13.80;;;9.00;;
24435;SDS011;12616;52.470;13.436;2022-10-26T03:11:53;11.87;;;8.87;;
24435;SDS011;12616;52.470;13.436;2022-10-26T03:14:20;11.30;;;7.60;;
24435;SDS011;12616;52.470;13.436;2022-10-26T03:16:47;11.30;;;7.53;;
24435;SDS011;12616;52.470;13.436;2022-10-26T03:19:13;11.60;;;8.33;;
24435;SDS011;12616;52.470;13.436;2022-10-26T03:21:41;12.47;;;8.57;;
24435;SDS011;12616;52.470;13.436;2022-10-26T03:24:08;9.50;;;8.33;;
24435;SDS011;12616;52.470;13.436;2022-10-26T03:26:35;9.67;;;8.10;;
24435;SDS011;12616;52.470;13.436;2022-10-26T03:29:02;13.07;;;7.90;;
24435;SDS011;12616;52.470;13.436;2022-10-26T03:31:29;11.37;;;7.57;;
24435;SDS011;12616;52.470;13.436;2022-10-26T03:33:55;10.80;;;7.50;;
24435;SDS011;12616;52.470;13.436;2022-10-26T03:36:22;10.07;;;7.30;;
24435;SDS011;12616;52.470;13.436;2022-10-26T03:38:50;12.73;;;7.20;;
24435;SDS011;12616;52.470;13.436;2022-10-26T03:41:17;9.67;;;7.40;;
24435;SDS011;12616;52.470;13.436;2022-10-26T03:43:43;9.23;;;7.27;;
24435;SDS011;12616;52.470;13.436;2022-10-26T03:46:10;11.00;;;8.00;;
24435;SDS011;12616;52.470;13.436;2022-10-26T03:48:37;10.37;;;8.63;;
24435;SDS011;12616;52.470;13.436;2022-10-26T03:51:04;9.53;;;8.00;;
24435;SDS011;12616;52.470;13.436;2022-10-26T03:53:31;9.50;;;7.70;;
24435;SDS011;12616;52.470;13.436;2022-10-26T03:55:59;8.00;;;7.10;;
24435;SDS011;12616;52.470;13.436;2022-10-26T03:58:25;13.00;;;7.87;;
24435;SDS011;12616;52.470;13.436;2022-10-26T04:00:52;9.80;;;8.67;;
24435;SDS011;12616;52.470;13.436;2022-10-26T04:03:19;10.77;;;7.45;;
24435;SDS011;12616;52.470;13.436;2022-10-26T04:05:46;12.80;;;8.70;;
24435;SDS011;12616;52.470;13.436;2022-10-26T04:08:13;10.23;;;8.90;;
24435;SDS011;12616;52.470;13.436;2022-10-26T04:10:40;7.90;;;7.10;;
24435;SDS011;12616;52.470;13.436;2022-10-26T04:13:09;13.03;;;8.13;;
24435;SDS011;12616;52.470;13.436;2022-10-26T04:15:36;11.13;;;6.30;;
24435;SDS011;12616;52.470;13.436;2022-10-26T04:18:03;10.17;;;8.33;;
24435;SDS011;12616;52.470;13.436;2022-10-26T04:20:31;7.83;;;6.97;;
24435;SDS011;12616;52.470;13.436;2022-10-26T04:22:59;12.67;;;7.70;;
24435;SDS011;12616;52.470;13.436;2022-10-26T04:25:27;9.93;;;7.73;;
24435;SDS011;12616;52.470;13.436;2022-10-26T04:27:54;10.50;;;7.70;;
24435;SDS011;12616;52.470;13.436;2022-10-26T04:30:22;8.10;;;7.10;;
24435;SDS011;12616;52.470;13.436;2022-10-26T04:32:49;11.33;;;7.50;;
24435;SDS011;12616;52.470;13.436;2022-10-26T04:35:16;7.90;;;7.10;;
24435;SDS011;12616;52.470;13.436;2022-10-26T04:37:43;8.10;;;6.87;;
24435;SDS011;12616;52.470;13.436;2022-10-26T04:40:10;19.03;;;10.03;;
24435;SDS011;12616;52.470;13.436;2022-10-26T04:42:40;10.10;;;7.80;;
24435;SDS011;12616;52.470;13.436;2022-10-26T04:45:08;7.87;;;6.97;;
24435;SDS011;12616;52.470;13.436;2022-10-26T04:47:36;12.43;;;7.23;;
24435;SDS011;12616;52.470;13.436;2022-10-26T04:50:03;10.10;;;7.60;;
24435;SDS011;12616;52.470;13.436;2022-10-26T04:52:30;11.80;;;7.90;;
24435;SDS011;12616;52.470;13.436;2022-10-26T04:54:57;12.90;;;7.63;;
24435;SDS011;12616;52.470;13.436;2022-10-26T04:57:24;7.50;;;6.80;;
24435;SDS011;12616;52.470;13.436;2022-10-26T04:59:50;10.50;;;8.87;;
24435;SDS011;12616;52.470;13.436;2022-10-26T05:02:17;13.73;;;8.50;;
24435;SDS011;12616;52.470;13.436;2022-10-26T05:04:46;12.40;;;7.87;;
24435;SDS011;12616;52.470;13.436;2022-10-26T05:07:13;13.90;;;8.37;;
24435;SDS011;12616;52.470;13.436;2022-10-26T05:09:39;10.40;;;7.10;;
24435;SDS011;12616;52.470;13.436;2022-10-26T05:12:06;10.27;;;8.07;;
24435;SDS011;12616;52.470;13.436;2022-10-26T05:14:33;10.90;;;8.37;;
24435;SDS011;12616;52.470;13.436;2022-10-26T05:17:00;11.50;;;8.27;;
24435;SDS011;12616;52.470;13.436;2022-10-26T05:19:26;10.47;;;7.40;;
24435;SDS011;12616;52.470;13.436;2022-10-26T05:21:54;16.90;;;7.47;;
24435;SDS011;12616;52.470;13.436;2022-10-26T05:24:21;10.97;;;8.07;;
24435;SDS011;12616;52.470;13.436;2022-10-26T05:26:48;11.50;;;7.50;;
24435;SDS011;12616;52.470;13.436;2022-10-26T05:29:14;14.87;;;7.83;;
24435;SDS011;12616;52.470;13.436;2022-10-26T05:31:41;11.30;;;7.47;;
24435;SDS011;12616;52.470;13.436;2022-10-26T05:34:09;11.00;;;8.10;;
24435;SDS011;12616;52.470;13.436;2022-10-26T05:36:36;7.23;;;6.50;;
24435;SDS011;12616;52.470;13.436;2022-10-26T05:39:04;10.40;;;7.70;;
24435;SDS011;12616;52.470;13.436;2022-10-26T05:41:30;7.80;;;7.00;;
24435;SDS011;12616;52.470;13.436;2022-10-26T05:43:57;9.90;;;8.30;;
24435;SDS011;12616;52.470;13.436;2022-10-26T05:46:24;9.30;;;8.30;;
24435;SDS011;12616;52.470;13.436;2022-10-26T05:48:50;17.50;;;11.43;;
24435;SDS011;12616;52.470;13.436;2022-10-26T05:51:17;13.93;;;10.70;;
24435;SDS011;12616;52.470;13.436;2022-10-26T05:53:44;12.97;;;9.07;;
24435;SDS011;12616;52.470;13.436;2022-10-26T05:56:13;16.00;;;10.13;;
24435;SDS011;12616;52.470;13.436;2022-10-26T05:58:45;17.63;;;10.40;;
24435;SDS011;12616;52.470;13.436;2022-10-26T06:01:15;15.27;;;8.93;;
24435;SDS011;12616;52.470;13.436;2022-10-26T06:03:56;22.27;;;13.00;;
24435;SDS011;12616;52.470;13.436;2022-10-26T06:06:43;23.27;;;12.70;;
24435;SDS011;12616;52.470;13.436;2022-10-26T06:09:12;20.80;;;12.25;;
24435;SDS011;12616;52.470;13.436;2022-10-26T06:11:41;22.77;;;12.50;;
24435;SDS011;12616;52.470;13.436;2022-10-26T06:14:08;28.33;;;12.67;;
24435;SDS011;12616;52.470;13.436;2022-10-26T06:16:37;21.13;;;14.10;;
24435;SDS011;12616;52.470;13.436;2022-10-26T06:19:14;20.87;;;12.50;;
24435;SDS011;12616;52.470;13.436;2022-10-26T06:27:24;16.60;;;10.17;;
24435;SDS011;12616;52.470;13.436;2022-10-26T06:29:58;20.43;;;11.37;;
24435;SDS011;12616;52.470;13.436;2022-10-26T06:32:27;14.07;;;10.25;;
24435;SDS011;12616;52.470;13.436;2022-10-26T06:35:11;13.90;;;10.50;;
24435;SDS011;12616;52.470;13.436;2022-10-26T06:37:46;18.80;;;12.00;;
24435;SDS011;12616;52.470;13.436;2022-10-26T06:40:14;18.97;;;12.30;;
24435;SDS011;12616;52.470;13.436;2022-10-26T06:42:44;16.08;;;11.00;;
24435;SDS011;12616;52.470;13.436;2022-10-26T06:45:11;16.52;;;9.13;;
24435;SDS011;12616;52.470;13.436;2022-10-26T06:47:41;80.50;;;42.63;;
24435;SDS011;12616;52.470;13.436;2022-10-26T06:50:15;16.50;;;11.32;;
24435;SDS011;12616;52.470;13.436;2022-10-26T06:52:54;20.00;;;13.23;;
24435;SDS011;12616;52.470;13.436;2022-10-26T06:55:26;21.63;;;12.73;;
24435;SDS011;12616;52.470;13.436;2022-10-26T06:58:02;16.10;;;11.83;;
24435;SDS011;12616;52.470;13.436;2022-10-26T07:00:30;17.27;;;12.63;;
24435;SDS011;12616;52.470;13.436;2022-10-26T07:02:57;13.53;;;10.40;;
24435;SDS011;12616;52.470;13.436;2022-10-26T07:05:24;17.70;;;10.60;;
24435;SDS011;12616;52.470;13.436;2022-10-26T07:07:50;14.40;;;10.17;;
24435;SDS011;12616;52.470;13.436;2022-10-26T07:10:17;15.18;;;10.82;;
24435;SDS011;12616;52.470;13.436;2022-10-26T07:12:44;25.23;;;13.07;;
24435;SDS011;12616;52.470;13.436;2022-10-26T07:15:12;13.53;;;10.43;;
24435;SDS011;12616;52.470;13.436;2022-10-26T07:17:41;14.23;;;10.20;;
24435;SDS011;12616;52.470;13.436;2022-10-26T07:20:10;12.80;;;10.13;;
24435;SDS011;12616;52.470;13.436;2022-10-26T07:22:36;11.13;;;9.93;;
24435;SDS011;12616;52.470;13.436;2022-10-26T07:25:04;15.30;;;11.03;;
24435;SDS011;12616;52.470;13.436;2022-10-26T07:27:32;15.53;;;11.00;;
24435;SDS011;12616;52.470;13.436;2022-10-26T07:29:59;14.93;;;9.37;;
24435;SDS011;12616;52.470;13.436;2022-10-26T07:32:27;14.03;;;10.27;;
24435;SDS011;12616;52.470;13.436;2022-10-26T07:34:54;16.57;;;10.27;;
24435;SDS011;12616;52.470;13.436;2022-10-26T07:37:21;14.53;;;9.97;;
24435;SDS011;12616;52.470;13.436;2022-10-26T07:39:47;13.73;;;10.43;;
24435;SDS011;12616;52.470;13.436;2022-10-26T07:42:14;26.87;;;11.37;;
24435;SDS011;12616;52.470;13.436;2022-10-26T07:44:41;16.60;;;12.17;;
24435;SDS011;12616;52.470;13.436;2022-10-26T07:47:07;15.33;;;10.83;;
24435;SDS011;12616;52.470;13.436;2022-10-26T07:49:35;17.97;;;10.90;;
24435;SDS011;12616;52.470;13.436;2022-10-26T07:52:02;25.97;;;14.43;;
24435;SDS011;12616;52.470;13.436;2022-10-26T07:54:30;17.70;;;12.80;;
24435;SDS011;12616;52.470;13.436;2022-10-26T07:56:56;17.43;;;12.30;;
24435;SDS011;12616;52.470;13.436;2022-10-26T07:59:23;18.90;;;11.20;;
24435;SDS011;12616;52.470;13.436;2022-10-26T08:01:50;18.70;;;12.00;;
24435;SDS011;12616;52.470;13.436;2022-10-26T08:04:17;15.90;;;11.57;;
24435;SDS011;12616;52.470;13.436;2022-10-26T08:06:45;16.87;;;11.73;;
24435;SDS011;12616;52.470;13.436;2022-10-26T08:09:12;16.43;;;10.70;;
24435;SDS011;12616;52.470;13.436;2022-10-26T08:11:39;19.10;;;11.80;;
24435;SDS011;12616;52.470;13.436;2022-10-26T08:14:06;19.67;;;11.20;;
24435;SDS011;12616;52.470;13.436;2022-10-26T08:16:33;17.17;;;11.10;;
24435;SDS011;12616;52.470;13.436;2022-10-26T08:18:59;15.13;;;11.20;;
24435;SDS011;12616;52.470;13.436;2022-10-26T08:21:26;16.60;;;11.77;;
24435;SDS011;12616;52.470;13.436;2022-10-26T08:23:54;13.97;;;11.43;;
24435;SDS011;12616;52.470;13.436;2022-10-26T08:26:23;16.10;;;11.73;;
24435;SDS011;12616;52.470;13.436;2022-10-26T08:28:50;13.10;;;10.17;;
24435;SDS011;12616;52.470;13.436;2022-10-26T08:31:17;14.30;;;10.17;;
24435;SDS011;12616;52.470;13.436;2022-10-26T08:33:43;12.93;;;10.43;;
24435;SDS011;12616;52.470;13.436;2022-10-26T08:36:10;15.70;;;11.50;;
24435;SDS011;12616;52.470;13.436;2022-10-26T08:38:38;12.30;;;10.30;;
24435;SDS011;12616;52.470;13.436;2022-10-26T08:41:07;16.60;;;11.70;;
24435;SDS011;12616;52.470;13.436;2022-10-26T08:43:36;20.63;;;13.63;;
24435;SDS011;12616;52.470;13.436;2022-10-26T08:46:06;15.00;;;12.23;;
24435;SDS011;12616;52.470;13.436;2022-10-26T08:48:39;12.33;;;11.03;;
24435;SDS011;12616;52.470;13.436;2022-10-26T08:51:09;15.37;;;11.50;;
24435;SDS011;12616;52.470;13.436;2022-10-26T08:53:40;20.60;;;10.50;;
24435;SDS011;12616;52.470;13.436;2022-10-26T08:56:12;11.70;;;10.40;;
24435;SDS011;12616;52.470;13.436;2022-10-26T08:58:44;20.27;;;10.73;;
24435;SDS011;12616;52.470;13.436;2022-10-26T09:01:14;17.50;;;11.90;;
24435;SDS011;12616;52.470;13.436;2022-10-26T09:03:42;15.33;;;11.10;;
24435;SDS011;12616;52.470;13.436;2022-10-26T09:06:12;14.33;;;11.40;;
24435;SDS011;12616;52.470;13.436;2022-10-26T09:08:47;15.70;;;11.70;;
24435;SDS011;12616;52.470;13.436;2022-10-26T09:11:26;17.07;;;12.00;;
24435;SDS011;12616;52.470;13.436;2022-10-26T09:14:12;15.77;;;12.57;;
24435;SDS011;12616;52.470;13.436;2022-10-26T09:16:45;16.97;;;13.80;;
24435;SDS011;12616;52.470;13.436;2022-10-26T09:19:27;15.30;;;12.93;;
24435;SDS011;12616;52.470;13.436;2022-10-26T09:22:03;20.00;;;14.57;;
24435;SDS011;12616;52.470;13.436;2022-10-26T09:24:37;19.03;;;12.53;;
24435;SDS011;12616;52.470;13.436;2022-10-26T09:27:10;15.30;;;10.47;;
24435;SDS011;12616;52.470;13.436;2022-10-26T09:29:43;16.30;;;10.27;;
24435;SDS011;12616;52.470;13.436;2022-10-26T09:32:12;13.53;;;9.53;;
24435;SDS011;12616;52.470;13.436;2022-10-26T09:34:45;22.93;;;11.53;;
24435;SDS011;12616;52.470;13.436;2022-10-26T09:37:15;14.43;;;9.37;;
24435;SDS011;12616;52.470;13.436;2022-10-26T09:39:48;12.23;;;9.90;;
24435;SDS011;12616;52.470;13.436;2022-10-26T09:42:24;15.90;;;9.23;;
24435;SDS011;12616;52.470;13.436;2022-10-26T09:44:59;8.93;;;8.03;;
24435;SDS011;12616;52.470;13.436;2022-10-26T09:47:32;16.57;;;9.80;;
24435;SDS011;12616;52.470;13.436;2022-10-26T09:50:06;10.23;;;8.70;;
24435;SDS011;12616;52.470;13.436;2022-10-26T09:52:42;15.90;;;9.13;;
24435;SDS011;12616;52.470;13.436;2022-10-26T09:55:09;11.87;;;8.33;;
24435;SDS011;12616;52.470;13.436;2022-10-26T09:57:39;11.53;;;8.93;;
24435;SDS011;12616;52.470;13.436;2022-10-26T10:00:11;12.00;;;7.90;;
24435;SDS011;12616;52.470;13.436;2022-10-26T10:02:40;13.97;;;9.23;;
24435;SDS011;12616;52.470;13.436;2022-10-26T10:08:09;12.10;;;10.10;;
24435;SDS011;12616;52.470;13.436;2022-10-26T10:10:47;10.77;;;9.63;;
24435;SDS011;12616;52.470;13.436;2022-10-26T10:13:24;10.47;;;7.63;;
24435;SDS011;12616;52.470;13.436;2022-10-26T10:15:53;9.73;;;7.67;;
24435;SDS011;12616;52.470;13.436;2022-10-26T10:18:22;9.40;;;6.87;;
24435;SDS011;12616;52.470;13.436;2022-10-26T10:20:50;8.37;;;7.13;;
24435;SDS011;12616;52.470;13.436;2022-10-26T10:23:29;9.57;;;6.73;;
24435;SDS011;12616;52.470;13.436;2022-10-26T10:25:58;8.30;;;7.17;;
24435;SDS011;12616;52.470;13.436;2022-10-26T10:28:32;8.20;;;6.53;;
24435;SDS011;12616;52.470;13.436;2022-10-26T10:31:01;6.80;;;5.50;;
24435;SDS011;12616;52.470;13.436;2022-10-26T10:33:33;5.90;;;5.40;;
24435;SDS011;12616;52.470;13.436;2022-10-26T10:36:01;5.97;;;4.83;;
24435;SDS011;12616;52.470;13.436;2022-10-26T10:38:35;7.23;;;5.53;;
24435;SDS011;12616;52.470;13.436;2022-10-26T10:41:03;10.87;;;5.20;;
24435;SDS011;12616;52.470;13.436;2022-10-26T10:43:32;5.60;;;4.90;;
24435;SDS011;12616;52.470;13.436;2022-10-26T10:45:59;5.40;;;4.27;;
24435;SDS011;12616;52.470;13.436;2022-10-26T10:48:26;5.80;;;4.70;;
24435;SDS011;12616;52.470;13.436;2022-10-26T10:50:54;5.47;;;4.93;;
24435;SDS011;12616;52.470;13.436;2022-10-26T10:53:24;9.13;;;4.63;;
24435;SDS011;12616;52.470;13.436;2022-10-26T10:56:06;5.17;;;4.40;;
24435;SDS011;12616;52.470;13.436;2022-10-26T10:58:45;9.63;;;4.33;;
24435;SDS011;12616;52.470;13.436;2022-10-26T11:01:21;6.43;;;4.90;;
24435;SDS011;12616;52.470;13.436;2022-10-26T11:03:56;4.40;;;3.97;;
24435;SDS011;12616;52.470;13.436;2022-10-26T11:06:41;5.63;;;4.43;;
24435;SDS011;12616;52.470;13.436;2022-10-26T11:09:10;6.43;;;4.80;;
24435;SDS011;12616;52.470;13.436;2022-10-26T11:11:39;5.27;;;4.67;;
24435;SDS011;12616;52.470;13.436;2022-10-26T11:14:13;5.77;;;4.30;;
24435;SDS011;12616;52.470;13.436;2022-10-26T11:16:44;4.30;;;3.90;;
24435;SDS011;12616;52.470;13.436;2022-10-26T11:19:15;7.87;;;4.53;;
24435;SDS011;12616;52.470;13.436;2022-10-26T11:21:46;6.40;;;4.77;;
24435;SDS011;12616;52.470;13.436;2022-10-26T11:24:17;6.80;;;4.33;;
24435;SDS011;12616;52.470;13.436;2022-10-26T11:26:48;5.97;;;3.77;;
24435;SDS011;12616;52.470;13.436;2022-10-26T11:29:25;3.97;;;3.30;;
24435;SDS011;12616;52.470;13.436;2022-10-26T11:32:00;7.00;;;4.77;;
24435;SDS011;12616;52.470;13.436;2022-10-26T11:34:33;7.50;;;4.07;;
24435;SDS011;12616;52.470;13.436;2022-10-26T11:37:07;4.43;;;4.00;;
24435;SDS011;12616;52.470;13.436;2022-10-26T11:39:42;3.80;;;3.50;;
24435;SDS011;12616;52.470;13.436;2022-10-26T11:42:15;6.20;;;3.90;;
24435;SDS011;12616;52.470;13.436;2022-10-26T11:44:50;5.23;;;4.67;;
24435;SDS011;12616;52.470;13.436;2022-10-26T11:47:23;6.40;;;3.67;;
24435;SDS011;12616;52.470;13.436;2022-10-26T11:50:00;3.50;;;3.20;;
24435;SDS011;12616;52.470;13.436;2022-10-26T11:52:32;8.40;;;4.30;;
24435;SDS011;12616;52.470;13.436;2022-10-26T11:55:07;4.53;;;3.60;;
24435;SDS011;12616;52.470;13.436;2022-10-26T11:57:35;3.70;;;3.20;;
24435;SDS011;12616;52.470;13.436;2022-10-26T12:00:06;5.70;;;3.30;;
24435;SDS011;12616;52.470;13.436;2022-10-26T12:02:39;3.80;;;3.50;;
24435;SDS011;12616;52.470;13.436;2022-10-26T12:05:10;3.33;;;3.03;;
24435;SDS011;12616;52.470;13.436;2022-10-26T12:07:45;4.30;;;3.30;;
24435;SDS011;12616;52.470;13.436;2022-10-26T12:10:20;5.20;;;3.00;;
24435;SDS011;12616;52.470;13.436;2022-10-26T12:12:51;5.03;;;4.63;;
24435;SDS011;12616;52.470;13.436;2022-10-26T12:15:26;3.83;;;3.50;;
24435;SDS011;12616;52.470;13.436;2022-10-26T12:17:58;3.30;;;2.90;;
24435;SDS011;12616;52.470;13.436;2022-10-26T12:20:51;7.17;;;4.60;;
24435;SDS011;12616;52.470;13.436;2022-10-26T12:23:28;2.97;;;2.40;;
24435;SDS011;12616;52.470;13.436;2022-10-26T12:29:12;6.43;;;3.37;;
24435;SDS011;12616;52.470;13.436;2022-10-26T12:31:55;4.43;;;3.00;;
24435;SDS011;12616;52.470;13.436;2022-10-26T12:34:23;5.50;;;2.50;;
24435;SDS011;12616;52.470;13.436;2022-10-26T12:37:18;4.93;;;3.70;;
24435;SDS011;12616;52.470;13.436;2022-10-26T12:39:49;2.73;;;2.47;;
24435;SDS011;12616;52.470;13.436;2022-10-26T12:42:26;5.30;;;2.80;;
24435;SDS011;12616;52.470;13.436;2022-10-26T12:45:05;3.30;;;3.00;;
24435;SDS011;12616;52.470;13.436;2022-10-26T12:50:48;5.37;;;3.00;;
24435;SDS011;12616;52.470;13.436;2022-10-26T12:53:16;7.47;;;2.67;;
24435;SDS011;12616;52.470;13.436;2022-10-26T12:56:02;3.60;;;3.17;;
24435;SDS011;12616;52.470;13.436;2022-10-26T12:58:34;6.43;;;4.30;;
24435;SDS011;12616;52.470;13.436;2022-10-26T13:07:18;7.53;;;2.90;;
24435;SDS011;12616;52.470;13.436;2022-10-26T13:09:52;2.80;;;2.50;;
24435;SDS011;12616;52.470;13.436;2022-10-26T13:12:21;2.63;;;2.30;;
24435;SDS011;12616;52.470;13.436;2022-10-26T13:14:54;4.80;;;2.50;;
24435;SDS011;12616;52.470;13.436;2022-10-26T13:17:27;3.53;;;2.47;;
24435;SDS011;12616;52.470;13.436;2022-10-26T13:20:00;4.50;;;3.23;;
24435;SDS011;12616;52.470;13.436;2022-10-26T13:22:43;3.30;;;3.00;;
24435;SDS011;12616;52.470;13.436;2022-10-26T13:25:17;4.03;;;2.63;;
24435;SDS011;12616;52.470;13.436;2022-10-26T13:27:56;3.10;;;2.80;;
24435;SDS011;12616;52.470;13.436;2022-10-26T13:33:13;5.33;;;3.47;;
24435;SDS011;12616;52.470;13.436;2022-10-26T13:35:49;4.10;;;3.63;;
24435;SDS011;12616;52.470;13.436;2022-10-26T13:38:18;6.77;;;3.97;;
24435;SDS011;12616;52.470;13.436;2022-10-26T13:40:48;4.83;;;4.43;;
24435;SDS011;12616;52.470;13.436;2022-10-26T13:43:19;5.13;;;4.23;;
24435;SDS011;12616;52.470;13.436;2022-10-26T13:45:52;5.63;;;3.70;;
24435;SDS011;12616;52.470;13.436;2022-10-26T13:48:26;6.17;;;3.30;;
24435;SDS011;12616;52.470;13.436;2022-10-26T13:51:00;4.30;;;3.30;;
24435;SDS011;12616;52.470;13.436;2022-10-26T13:53:33;5.67;;;3.50;;
24435;SDS011;12616;52.470;13.436;2022-10-26T13:56:05;10.43;;;4.50;;
24435;SDS011;12616;52.470;13.436;2022-10-26T13:58:40;5.23;;;3.57;;
24435;SDS011;12616;52.470;13.436;2022-10-26T14:01:11;3.67;;;2.20;;
24435;SDS011;12616;52.470;13.436;2022-10-26T14:03:41;5.10;;;3.27;;
24435;SDS011;12616;52.470;13.436;2022-10-26T14:06:12;4.70;;;2.73;;
24435;SDS011;12616;52.470;13.436;2022-10-26T14:08:41;3.87;;;3.07;;
24435;SDS011;12616;52.470;13.436;2022-10-26T14:11:11;5.87;;;3.00;;
24435;SDS011;12616;52.470;13.436;2022-10-26T14:13:40;8.00;;;3.50;;
24435;SDS011;12616;52.470;13.436;2022-10-26T14:16:07;3.90;;;3.10;;
24435;SDS011;12616;52.470;13.436;2022-10-26T14:18:35;5.70;;;3.70;;
24435;SDS011;12616;52.470;13.436;2022-10-26T14:21:03;24.30;;;16.77;;
24435;SDS011;12616;52.470;13.436;2022-10-26T14:23:34;15.43;;;9.23;;
24435;SDS011;12616;52.470;13.436;2022-10-26T14:26:03;10.80;;;6.80;;
24435;SDS011;12616;52.470;13.436;2022-10-26T14:28:31;9.17;;;6.67;;
24435;SDS011;12616;52.470;13.436;2022-10-26T14:31:10;9.80;;;4.90;;
24435;SDS011;12616;52.470;13.436;2022-10-26T14:33:37;7.73;;;5.00;;
24435;SDS011;12616;52.470;13.436;2022-10-26T14:36:04;5.93;;;3.97;;
24435;SDS011;12616;52.470;13.436;2022-10-26T14:38:35;6.07;;;3.77;;
24435;SDS011;12616;52.470;13.436;2022-10-26T14:41:08;5.20;;;3.70;;
24435;SDS011;12616;52.470;13.436;2022-10-26T14:43:36;4.83;;;3.47;;
24435;SDS011;12616;52.470;13.436;2022-10-26T14:46:03;10.27;;;3.50;;
24435;SDS011;12616;52.470;13.436;2022-10-26T14:48:31;11.10;;;5.93;;
24435;SDS011;12616;52.470;13.436;2022-10-26T14:51:00;8.70;;;5.40;;
24435;SDS011;12616;52.470;13.436;2022-10-26T14:53:32;7.33;;;5.37;;
24435;SDS011;12616;52.470;13.436;2022-10-26T14:56:03;8.30;;;5.40;;
24435;SDS011;12616;52.470;13.436;2022-10-26T14:58:32;8.20;;;3.90;;
24435;SDS011;12616;52.470;13.436;2022-10-26T15:03:53;4.93;;;4.43;;
24435;SDS011;12616;52.470;13.436;2022-10-26T15:06:37;6.83;;;5.17;;
24435;SDS011;12616;52.470;13.436;2022-10-26T15:09:16;8.43;;;5.60;;
24435;SDS011;12616;52.470;13.436;2022-10-26T15:11:59;7.93;;;5.50;;
24435;SDS011;12616;52.470;13.436;2022-10-26T15:14:29;6.50;;;4.93;;
24435;SDS011;12616;52.470;13.436;2022-10-26T15:16:56;6.40;;;4.60;;
24435;SDS011;12616;52.470;13.436;2022-10-26T15:19:24;7.00;;;5.00;;
24435;SDS011;12616;52.470;13.436;2022-10-26T15:21:52;5.03;;;4.53;;
24435;SDS011;12616;52.470;13.436;2022-10-26T15:27:11;6.90;;;4.50;;
24435;SDS011;12616;52.470;13.436;2022-10-26T15:29:40;4.53;;;3.70;;
24435;SDS011;12616;52.470;13.436;2022-10-26T15:32:19;4.73;;;4.33;;
24435;SDS011;12616;52.470;13.436;2022-10-26T15:37:51;6.03;;;4.00;;
24435;SDS011;12616;52.470;13.436;2022-10-26T15:40:20;6.57;;;4.13;;
24435;SDS011;12616;52.470;13.436;2022-10-26T15:42:48;6.97;;;4.93;;